< < Back
Terminal Aerodrome Forecast


Current Version              Previous Versions:   1  2  3  4  5  6  7  8  9  

Terminal Aerodrome Forecast

620
FTUS42 KJAX 261500 AAB
TAFGNV
TAF AMD
KGNV 261510Z 2615/2712 32011KT P6SM BKN015 OVC040
     FM261800 30011KT P6SM SCT025 SCT250
     FM262300 VRB03KT P6SM SKC=



Latest METAR

273
SAUS70 KWBC 270700 RRD
MTRGNV
METAR KGNV 270653Z AUTO 28003KT 10SM CLR 03/02 A3023 RMK AO2 SLP237
T00330022


USA.gov is the U.S. government's official web portal to all federal, state and local government web resources and services.